Time;durP1;ratioP1;P1;durP2;ratioP2;P2;SDS_P1;SDS_P2;PMS_P1;PMS_P2;Temp;Humidity;BMP_temperature;BMP_pressure;BME280_temperature;BME280_humidity;BME280_pressure;Samples;Min_cycle;Max_cycle;Signal;HPM_P1;HPM_P2
2021/08/10 00:00:07;;;;;;;8.30;7.20;;;;;;;23.21;64.78;100520.20;117418;1185;23341;-70
2021/08/10 00:02:35;;;;;;;7.70;6.80;;;;;;;23.16;65.02;100521.27;117492;1184;22914;-66
2021/08/10 00:05:06;;;;;;;9.00;6.20;;;;;;;23.11;65.29;100526.58;117382;1185;22862;-66
2021/08/10 00:07:34;;;;;;;9.20;6.70;;;;;;;23.07;65.42;100527.16;117538;1183;23439;-66
2021/08/10 00:10:04;;;;;;;14.10;7.00;;;;;;;23.06;65.56;100524.58;117490;1182;23531;-70
2021/08/10 00:12:34;;;;;;;8.90;6.40;;;;;;;23.06;65.70;100532.45;117543;1183;21861;-66
2021/08/10 00:15:04;;;;;;;9.70;6.70;;;;;;;23.08;65.76;100534.48;117455;1184;22640;-68
2021/08/10 00:17:32;;;;;;;8.30;6.10;;;;;;;23.07;65.87;100537.91;117568;1185;22909;-72
2021/08/10 00:20:00;;;;;;;10.00;6.70;;;;;;;23.01;66.23;100537.93;117479;1183;23432;-72
2021/08/10 00:22:28;;;;;;;9.30;7.10;;;;;;;22.98;66.40;100537.05;117452;1186;21855;-67
2021/08/10 00:24:57;;;;;;;8.40;6.40;;;;;;;23.06;66.36;100538.01;117498;1185;21870;-72
2021/08/10 00:27:25;;;;;;;7.40;6.10;;;;;;;23.07;66.35;100540.09;117471;1182;22726;-67
2021/08/10 00:29:53;;;;;;;8.90;6.70;;;;;;;23.15;66.19;100531.86;117546;1182;26715;-72
2021/08/10 00:32:21;;;;;;;8.50;7.20;;;;;;;23.22;65.98;100530.05;117444;1183;21854;-67
2021/08/10 00:34:50;;;;;;;8.10;7.00;;;;;;;23.16;65.96;100535.55;117427;1183;21864;-72
2021/08/10 00:37:19;;;;;;;7.80;6.30;;;;;;;23.11;66.29;100538.05;117549;1185;22157;-70
2021/08/10 00:39:47;;;;;;;7.70;6.00;;;;;;;23.14;66.11;100536.20;117606;1183;21855;-71
2021/08/10 00:42:17;;;;;;;7.60;6.20;;;;;;;23.20;65.91;100534.40;117566;1185;21862;-66
2021/08/10 00:44:45;;;;;;;8.50;7.00;;;;;;;23.20;65.91;100534.59;117510;1182;21855;-67
2021/08/10 00:47:13;;;;;;;9.20;6.70;;;;;;;23.20;65.98;100531.22;117401;1184;21856;-71
2021/08/10 00:49:41;;;;;;;7.70;6.80;;;;;;;23.19;66.03;100535.02;117482;1186;21861;-70
2021/08/10 00:52:10;;;;;;;9.60;7.60;;;;;;;23.21;66.07;100532.05;117529;1183;21852;-71
2021/08/10 00:54:38;;;;;;;8.00;7.00;;;;;;;23.17;66.17;100537.33;117441;1182;21861;-67
2021/08/10 00:57:07;;;;;;;8.80;6.80;;;;;;;23.15;66.26;100537.94;117358;1183;21854;-71
2021/08/10 00:59:35;;;;;;;9.10;7.40;;;;;;;23.23;66.06;100535.31;117401;1185;21845;-68
2021/08/10 01:02:04;;;;;;;8.90;6.90;;;;;;;23.17;66.39;100534.27;117553;1182;21851;-71
2021/08/10 01:04:32;;;;;;;9.20;7.70;;;;;;;23.14;66.63;100535.88;117416;1183;21854;-71
2021/08/10 01:07:11;;;;;;;12.30;7.10;;;;;;;23.16;66.69;100536.83;117278;1185;21851;-70
2021/08/10 01:09:50;;;;;;;8.70;7.20;;;;;;;23.15;66.71;100536.69;117551;1183;22925;-66
2021/08/10 01:12:20;;;;;;;10.90;7.20;;;;;;;23.20;66.60;100536.73;117399;1182;21864;-73
2021/08/10 01:14:49;;;;;;;7.90;7.10;;;;;;;23.25;66.61;100533.94;117491;1185;21864;-67
2021/08/10 01:17:32;;;;;;;9.20;6.80;;;;;;;23.29;66.40;100534.45;117479;1182;23451;-73
2021/08/10 01:20:07;;;;;;;9.40;7.00;;;;;;;23.25;66.44;100533.98;117515;1184;21926;-67
2021/08/10 01:22:36;;;;;;;9.10;7.30;;;;;;;23.19;66.62;100535.73;117400;1182;22935;-71
2021/08/10 01:25:04;;;;;;;10.00;7.30;;;;;;;23.13;66.86;100533.09;117373;1182;21851;-67
2021/08/10 01:27:44;;;;;;;11.70;7.30;;;;;;;23.08;67.11;100534.83;117561;1183;22995;-68
2021/08/10 01:30:15;;;;;;;11.10;7.90;;;;;;;23.07;67.16;100532.19;117479;1181;21860;-70
2021/08/10 01:32:45;;;;;;;10.20;7.80;;;;;;;23.14;67.00;100527.60;117543;1185;21856;-69
2021/08/10 01:35:14;;;;;;;11.40;7.50;;;;;;;23.22;66.88;100526.28;117535;1182;24157;-69
2021/08/10 01:37:44;;;;;;;9.80;7.60;;;;;;;23.20;67.02;100525.11;117553;1184;22978;-74
2021/08/10 01:40:12;;;;;;;8.00;7.20;;;;;;;23.17;67.11;100525.64;117572;1182;21861;-74
2021/08/10 01:42:40;;;;;;;9.50;7.40;;;;;;;23.23;66.98;100525.84;117589;1185;22888;-67
2021/08/10 01:45:09;;;;;;;9.20;6.80;;;;;;;23.25;66.88;100525.71;117527;1182;21852;-74
2021/08/10 01:47:38;;;;;;;9.00;7.50;;;;;;;23.30;66.82;100521.67;117540;1182;21854;-68
2021/08/10 01:50:07;;;;;;;8.60;7.60;;;;;;;23.33;66.79;100525.96;117374;1186;21858;-74
2021/08/10 01:52:35;;;;;;;12.30;7.20;;;;;;;23.34;66.79;100522.48;117585;1184;21860;-67
2021/08/10 01:55:04;;;;;;;9.50;7.30;;;;;;;23.38;66.62;100523.30;117355;1185;22805;-75
2021/08/10 01:57:32;;;;;;;10.20;7.00;;;;;;;23.42;66.62;100527.70;117493;1183;21893;-68
2021/08/10 02:00:00;;;;;;;8.30;7.40;;;;;;;23.42;66.48;100526.60;117362;1185;21861;-68
2021/08/10 02:02:28;;;;;;;9.20;6.70;;;;;;;23.45;66.38;100521.40;117427;1185;21851;-68
2021/08/10 02:04:57;;;;;;;12.30;7.50;;;;;;;23.42;66.54;100522.33;117550;1185;21892;-75
2021/08/10 02:07:25;;;;;;;8.70;7.20;;;;;;;23.37;66.76;100521.75;117414;1182;21851;-67
2021/08/10 02:09:53;;;;;;;10.60;7.50;;;;;;;23.36;66.73;100521.29;117357;1180;22973;-67
2021/08/10 02:12:22;;;;;;;8.70;7.50;;;;;;;23.34;66.70;100517.66;117436;1183;21852;-75
2021/08/10 02:14:50;;;;;;;9.60;7.80;;;;;;;23.32;66.85;100516.89;117507;1183;23586;-67
2021/08/10 02:17:19;;;;;;;9.70;7.60;;;;;;;23.27;67.06;100513.58;117425;1184;21854;-68
2021/08/10 02:20:08;;;;;;;9.00;7.30;;;;;;;23.25;66.99;100509.44;117505;1185;23547;-69
2021/08/10 02:22:36;;;;;;;8.40;7.60;;;;;;;23.21;67.03;100505.89;117410;1185;21854;-81
2021/08/10 02:25:07;;;;;;;9.60;7.40;;;;;;;23.23;67.05;100506.01;117326;1182;21850;-80
2021/08/10 02:27:38;;;;;;;7.90;7.00;;;;;;;23.23;67.15;100504.74;117459;1185;21890;-69
2021/08/10 02:30:10;;;;;;;9.30;7.30;;;;;;;23.21;67.13;100508.39;117522;1182;22619;-68
2021/08/10 02:32:39;;;;;;;10.20;7.30;;;;;;;23.19;67.31;100506.89;117556;1185;21853;-75
2021/08/10 02:35:09;;;;;;;8.80;7.00;;;;;;;23.20;67.30;100508.80;117515;1182;22996;-68
2021/08/10 02:37:37;;;;;;;10.20;7.10;;;;;;;23.27;66.99;100509.14;117433;1182;22618;-67
2021/08/10 02:40:07;;;;;;;10.30;7.60;;;;;;;23.38;66.86;100506.48;117320;1184;21878;-78
2021/08/10 02:42:35;;;;;;;8.40;7.40;;;;;;;23.40;66.81;100504.02;117555;1185;22908;-69
2021/08/10 02:45:04;;;;;;;9.50;7.40;;;;;;;23.36;66.88;100503.73;117444;1186;21852;-76
2021/08/10 02:47:33;;;;;;;9.70;8.10;;;;;;;23.39;66.63;100501.23;117482;1182;23446;-66
2021/08/10 02:50:01;;;;;;;9.60;7.40;;;;;;;23.38;66.98;100502.52;117481;1185;21895;-66
2021/08/10 02:52:30;;;;;;;11.50;7.20;;;;;;;23.33;67.14;100501.59;117536;1182;21855;-75
2021/08/10 02:54:58;;;;;;;10.70;7.80;;;;;;;23.28;67.24;100502.83;117442;1185;23433;-65
2021/08/10 02:58:09;;;;;;;7.60;6.80;;;;;;;23.15;67.59;100498.94;117486;1184;21855;-75
2021/08/10 03:00:42;;;;;;;11.10;7.00;;;;;;;23.09;67.81;100498.95;117502;1185;21958;-74
2021/08/10 03:03:12;;;;;;;8.30;6.90;;;;;;;23.10;67.87;100498.02;117483;1183;23066;-75
2021/08/10 03:05:41;;;;;;;9.20;6.70;;;;;;;23.12;67.91;100499.52;117457;1184;21852;-68
2021/08/10 03:08:20;;;;;;;9.90;6.90;;;;;;;23.14;67.87;100498.08;117549;1182;22157;-72
2021/08/10 03:10:48;;;;;;;7.10;6.20;;;;;;;23.19;67.80;100500.30;117491;1182;22843;-76
2021/08/10 03:13:17;;;;;;;12.90;7.40;;;;;;;23.19;67.76;100497.80;117304;1184;21861;-77
2021/08/10 03:15:48;;;;;;;8.50;7.10;;;;;;;23.15;67.94;100499.30;117451;1182;21854;-77
2021/08/10 03:18:16;;;;;;;8.50;7.40;;;;;;;23.16;67.94;100501.90;117471;1184;21866;-77
2021/08/10 03:20:45;;;;;;;8.60;7.20;;;;;;;23.19;67.93;100501.91;117303;1185;21855;-74
2021/08/10 03:23:17;;;;;;;8.20;7.30;;;;;;;23.20;67.89;100501.34;117472;1185;21845;-66
2021/08/10 03:25:45;;;;;;;9.20;7.70;;;;;;;23.21;67.98;100501.62;117486;1182;21854;-75
2021/08/10 03:28:13;;;;;;;9.00;7.10;;;;;;;23.21;68.02;100496.61;117364;1182;21863;-67
2021/08/10 03:30:41;;;;;;;9.50;6.60;;;;;;;23.26;68.04;100498.63;117488;1183;23429;-79
2021/08/10 03:33:10;;;;;;;8.90;6.20;;;;;;;23.33;67.64;100498.92;117377;1182;23432;-68
2021/08/10 03:35:38;;;;;;;8.10;6.60;;;;;;;23.47;66.88;100495.86;117371;1184;21854;-69
2021/08/10 03:38:07;;;;;;;11.50;7.50;;;;;;;23.55;66.74;100495.73;117337;1182;21857;-65
2021/08/10 03:40:37;;;;;;;10.20;6.90;;;;;;;23.63;66.68;100495.03;117245;1185;21857;-78
2021/08/10 03:43:05;;;;;;;8.20;7.00;;;;;;;23.64;67.05;100493.55;117444;1185;22979;-77
2021/08/10 03:45:34;;;;;;;11.80;7.50;;;;;;;23.63;67.11;100490.34;117475;1183;21842;-66
2021/08/10 03:48:02;;;;;;;10.30;6.90;;;;;;;23.59;67.46;100489.34;117409;1184;24215;-72
2021/08/10 03:50:31;;;;;;;8.30;6.80;;;;;;;23.60;67.61;100488.80;117395;1183;23024;-78
2021/08/10 03:52:59;;;;;;;8.30;6.70;;;;;;;23.66;67.49;100489.46;117386;1182;21893;-79
2021/08/10 03:55:37;;;;;;;8.60;6.80;;;;;;;23.67;67.54;100488.69;117403;1185;21860;-65
2021/08/10 03:58:06;;;;;;;8.90;7.80;;;;;;;23.69;67.72;100491.60;117148;1184;21885;-70
2021/08/10 04:00:37;;;;;;;9.70;7.10;;;;;;;23.74;67.76;100491.27;117446;1182;22272;-72
2021/08/10 04:03:06;;;;;;;8.50;6.50;;;;;;;23.85;67.41;100495.90;119417;1184;21776;-66
2021/08/10 04:05:39;;;;;;;10.70;6.80;;;;;;;23.87;67.43;100492.15;119470;1184;22251;-65
2021/08/10 04:08:11;;;;;;;8.10;6.90;;;;;;;23.94;67.34;100493.39;119307;1184;21818;-65
2021/08/10 04:10:47;;;;;;;10.70;6.50;;;;;;;24.02;67.25;100491.60;119500;1182;22304;-65
2021/08/10 04:13:15;;;;;;;10.30;7.00;;;;;;;24.07;67.26;100498.95;117429;1183;22655;-75
2021/08/10 04:15:48;;;;;;;8.80;7.30;;;;;;;24.12;67.33;100499.20;118790;1182;21855;-65
2021/08/10 04:18:18;;;;;;;10.50;7.10;;;;;;;24.24;66.92;100491.77;117476;1182;21861;-65
2021/08/10 04:20:48;;;;;;;8.60;6.90;;;;;;;24.22;67.16;100489.59;117449;1182;21975;-67
2021/08/10 04:23:16;;;;;;;9.10;6.70;;;;;;;24.26;67.09;100488.59;117380;1184;21845;-73
2021/08/10 04:25:46;;;;;;;8.00;7.00;;;;;;;24.32;67.06;100491.75;117353;1185;23516;-74
2021/08/10 04:28:15;;;;;;;8.20;6.90;;;;;;;24.41;66.86;100493.76;117387;1182;22310;-76
2021/08/10 04:30:43;;;;;;;8.00;7.20;;;;;;;24.53;66.68;100490.33;117395;1183;21855;-79
2021/08/10 04:33:11;;;;;;;7.20;6.40;;;;;;;24.62;66.53;100488.23;117406;1182;21854;-66
2021/08/10 04:35:39;;;;;;;9.10;7.40;;;;;;;24.76;66.20;100487.13;117471;1183;21855;-72
2021/08/10 04:38:08;;;;;;;7.20;6.50;;;;;;;24.80;66.20;100491.53;117480;1179;23429;-66
2021/08/10 04:40:36;;;;;;;12.50;7.50;;;;;;;24.95;65.79;100489.40;117515;1183;23432;-75
2021/08/10 04:43:04;;;;;;;10.80;8.00;;;;;;;24.95;65.83;100487.59;117454;1185;21851;-79
2021/08/10 04:45:33;;;;;;;9.30;7.50;;;;;;;24.94;66.02;100486.25;117504;1182;21855;-66
2021/08/10 04:48:01;;;;;;;10.20;7.60;;;;;;;25.01;65.94;100484.48;117498;1183;23683;-73
2021/08/10 04:50:29;;;;;;;7.50;6.70;;;;;;;25.13;65.49;100480.79;117486;1182;21855;-70
2021/08/10 04:52:58;;;;;;;9.00;7.40;;;;;;;25.21;65.39;100483.05;117429;1185;21864;-75
2021/08/10 04:55:26;;;;;;;12.00;7.10;;;;;;;25.23;65.34;100486.13;117522;1185;21854;-66
2021/08/10 04:57:54;;;;;;;8.20;7.00;;;;;;;25.32;65.16;100488.20;117468;1185;21860;-71
2021/08/10 05:00:22;;;;;;;9.60;6.90;;;;;;;25.40;65.08;100491.41;117499;1183;21858;-75
2021/08/10 05:02:50;;;;;;;8.70;7.30;;;;;;;25.49;64.91;100490.24;117462;1183;21858;-66
2021/08/10 05:05:27;;;;;;;9.20;7.20;;;;;;;25.58;64.78;100487.98;117497;1179;21859;-63
2021/08/10 05:08:04;;;;;;;7.40;6.60;;;;;;;25.67;64.37;100487.48;117407;1182;23079;-65
2021/08/10 05:10:33;;;;;;;8.30;6.70;;;;;;;25.77;64.09;100480.58;117448;1183;22929;-65
2021/08/10 05:13:01;;;;;;;11.00;7.50;;;;;;;25.83;63.96;100480.99;117437;1185;21979;-73
2021/08/10 05:15:46;;;;;;;8.70;7.30;;;;;;;25.89;64.02;100481.14;117500;1182;21884;-64
2021/08/10 05:18:15;;;;;;;10.80;7.20;;;;;;;26.02;63.93;100478.40;117566;1183;24139;-74
2021/08/10 05:20:44;;;;;;;10.30;8.10;;;;;;;26.10;63.63;100474.71;117512;1180;22938;-65
2021/08/10 05:23:12;;;;;;;10.00;7.20;;;;;;;26.21;63.28;100468.73;117441;1186;22644;-75
2021/08/10 05:25:42;;;;;;;9.10;7.10;;;;;;;26.32;63.18;100468.25;117407;1182;22899;-72
2021/08/10 05:28:11;;;;;;;9.00;7.40;;;;;;;26.40;62.88;100468.33;117312;1185;21862;-73
2021/08/10 05:30:39;;;;;;;8.90;6.80;;;;;;;26.47;62.76;100464.00;117449;1182;21854;-74
2021/08/10 05:33:08;;;;;;;8.60;7.00;;;;;;;26.58;62.54;100461.53;117405;1180;23534;-68
2021/08/10 05:35:36;;;;;;;10.20;7.60;;;;;;;26.72;62.30;100466.17;117419;1184;23465;-68
2021/08/10 05:38:05;;;;;;;8.70;7.30;;;;;;;26.90;62.01;100465.23;117471;1182;23432;-75
2021/08/10 05:40:37;;;;;;;8.20;7.30;;;;;;;27.06;61.70;100465.70;117398;1182;24131;-69
2021/08/10 05:43:05;;;;;;;7.90;7.10;;;;;;;27.22;61.10;100463.88;117523;1183;23445;-76
2021/08/10 05:45:33;;;;;;;8.00;7.20;;;;;;;27.28;61.03;100465.75;117498;1182;23442;-66
2021/08/10 05:48:02;;;;;;;8.40;7.50;;;;;;;27.38;60.71;100469.09;117432;1182;23468;-68
2021/08/10 05:50:30;;;;;;;7.80;6.90;;;;;;;27.51;59.93;100463.88;117389;1185;21855;-70
2021/08/10 05:52:58;;;;;;;10.00;7.00;;;;;;;27.60;59.64;100461.58;117498;1182;23456;-71
2021/08/10 05:55:27;;;;;;;7.90;6.70;;;;;;;27.72;59.32;100460.00;117351;1185;22629;-66
2021/08/10 05:57:55;;;;;;;7.80;6.50;;;;;;;27.86;58.77;100460.13;117466;1182;21855;-65
2021/08/10 06:00:23;;;;;;;9.00;6.80;;;;;;;27.96;58.57;100456.36;117347;1183;21851;-67
2021/08/10 06:02:53;;;;;;;8.50;7.20;;;;;;;28.07;58.39;100454.90;117466;1186;21850;-75
2021/08/10 06:05:23;;;;;;;8.10;6.10;;;;;;;28.22;58.15;100455.32;117408;1183;21860;-67
2021/08/10 06:07:51;;;;;;;7.70;6.90;;;;;;;28.39;57.64;100455.29;117410;1184;21865;-79
2021/08/10 06:10:39;;;;;;;9.60;6.40;;;;;;;28.57;56.70;100453.94;117410;1185;21855;-68
2021/08/10 06:13:09;;;;;;;8.60;7.70;;;;;;;28.71;56.19;100454.70;117428;1182;22300;-78
2021/08/10 06:15:41;;;;;;;8.80;6.70;;;;;;;28.82;55.83;100454.71;117390;1180;22883;-78
2021/08/10 06:18:09;;;;;;;9.40;7.00;;;;;;;28.98;55.19;100454.52;117583;1183;23531;-80
2021/08/10 06:20:38;;;;;;;7.40;6.40;;;;;;;29.14;55.15;100455.45;117448;1184;21862;-76
2021/08/10 06:23:06;;;;;;;9.20;6.70;;;;;;;29.22;55.03;100456.39;117441;1182;23537;-69
2021/08/10 06:25:35;;;;;;;7.50;6.80;;;;;;;29.47;54.74;100454.20;117475;1182;23560;-75
2021/08/10 06:28:04;;;;;;;7.60;6.30;;;;;;;29.59;54.49;100453.23;117454;1182;22908;-67
2021/08/10 06:30:34;;;;;;;7.80;6.60;;;;;;;29.77;54.38;100454.13;117339;1186;21917;-69
2021/08/10 06:33:06;;;;;;;7.10;6.20;;;;;;;30.05;54.04;100455.19;117472;1185;21859;-78
2021/08/10 06:35:35;;;;;;;7.80;6.20;;;;;;;30.31;53.21;100450.40;117321;1185;24283;-76
2021/08/10 06:38:03;;;;;;;8.50;6.20;;;;;;;30.46;52.53;100450.81;117478;1184;23537;-78
2021/08/10 06:40:31;;;;;;;8.20;6.30;;;;;;;30.64;52.36;100451.08;117482;1182;21850;-75
2021/08/10 06:43:00;;;;;;;8.30;6.10;;;;;;;30.80;51.89;100453.76;117569;1182;23059;-67
2021/08/10 06:45:28;;;;;;;8.10;6.50;;;;;;;30.94;51.02;100451.83;117547;1182;23456;-75
2021/08/10 06:47:57;;;;;;;6.60;5.90;;;;;;;31.09;50.67;100448.39;117462;1186;22332;-69
2021/08/10 06:50:25;;;;;;;8.30;6.50;;;;;;;31.29;50.16;100450.42;117522;1180;22633;-76
2021/08/10 06:52:53;;;;;;;8.00;6.70;;;;;;;31.55;49.48;100454.80;117468;1182;21854;-73
2021/08/10 06:55:22;;;;;;;8.80;5.80;;;;;;;31.75;49.02;100452.49;117507;1182;21857;-66
2021/08/10 06:57:50;;;;;;;6.90;6.20;;;;;;;31.84;48.80;100454.96;117371;1183;21871;-66
2021/08/10 07:00:18;;;;;;;7.60;5.80;;;;;;;31.99;48.23;100453.11;117500;1184;22915;-70
2021/08/10 07:02:47;;;;;;;9.50;6.80;;;;;;;32.18;47.65;100451.52;117466;1184;23156;-78
2021/08/10 07:05:16;;;;;;;8.20;7.00;;;;;;;32.29;47.19;100449.50;117513;1183;23617;-74
2021/08/10 07:07:45;;;;;;;8.30;6.60;;;;;;;32.31;47.15;100453.30;117590;1182;21903;-67
2021/08/10 07:10:13;;;;;;;7.20;6.30;;;;;;;32.28;46.50;100459.04;117422;1182;21861;-76
2021/08/10 07:12:42;;;;;;;8.40;6.10;;;;;;;32.30;46.33;100453.61;117520;1183;21854;-65
2021/08/10 07:15:13;;;;;;;9.60;6.60;;;;;;;32.27;46.47;100456.08;117535;1182;23432;-66
2021/08/10 07:17:42;;;;;;;7.90;6.30;;;;;;;32.36;46.20;100458.66;117546;1185;22054;-65
2021/08/10 07:20:11;;;;;;;7.00;6.20;;;;;;;32.50;45.83;100461.92;117424;1185;21842;-66
2021/08/10 07:22:40;;;;;;;8.00;5.90;;;;;;;32.63;45.75;100463.80;117388;1182;23558;-65
2021/08/10 07:25:09;;;;;;;6.70;6.00;;;;;;;32.79;45.56;100466.30;117425;1183;23430;-75
2021/08/10 07:27:37;;;;;;;6.90;5.80;;;;;;;32.84;45.23;100468.57;117565;1182;21978;-76
2021/08/10 07:30:16;;;;;;;7.00;5.80;;;;;;;32.85;45.06;100466.83;117405;1185;23563;-66
2021/08/10 07:32:45;;;;;;;7.30;6.30;;;;;;;32.97;44.89;100466.33;117418;1183;23550;-66
2021/08/10 07:35:14;;;;;;;7.00;6.30;;;;;;;33.11;45.36;100469.85;117399;1182;23301;-66
2021/08/10 07:37:43;;;;;;;7.40;6.20;;;;;;;33.35;45.12;100468.75;117410;1182;22002;-64
2021/08/10 07:40:12;;;;;;;6.80;6.00;;;;;;;33.52;44.82;100470.34;117365;1182;24114;-75
2021/08/10 07:42:41;;;;;;;7.40;5.80;;;;;;;33.70;44.43;100468.70;117461;1182;23594;-69
2021/08/10 07:45:10;;;;;;;10.40;5.60;;;;;;;33.96;43.46;100466.25;117476;1184;22747;-67
2021/08/10 07:47:39;;;;;;;6.80;5.60;;;;;;;34.06;43.33;100465.71;117405;1176;21855;-73
2021/08/10 07:50:07;;;;;;;10.90;6.00;;;;;;;34.14;43.51;100465.39;117464;1183;21913;-66
2021/08/10 07:52:36;;;;;;;8.30;6.10;;;;;;;34.28;43.23;100460.37;117568;1182;22899;-73
2021/08/10 07:55:06;;;;;;;7.40;5.30;;;;;;;34.43;43.10;100461.16;117372;1184;23560;-73
2021/08/10 07:57:34;;;;;;;8.80;5.70;;;;;;;34.60;42.70;100460.92;117537;1183;24150;-73
2021/08/10 08:00:03;;;;;;;8.90;6.10;;;;;;;34.80;42.76;100458.48;117524;1185;23531;-73
2021/08/10 08:02:31;;;;;;;6.50;5.50;;;;;;;35.08;42.07;100454.61;117501;1182;23452;-72
2021/08/10 08:05:00;;;;;;;8.30;5.40;;;;;;;35.25;41.04;100453.23;117280;1183;23459;-74
2021/08/10 08:07:30;;;;;;;8.30;5.60;;;;;;;35.23;40.86;100445.92;117511;1183;21984;-73
2021/08/10 08:09:58;;;;;;;11.60;5.60;;;;;;;35.21;40.93;100447.88;117530;1182;21851;-73
2021/08/10 08:12:42;;;;;;;8.10;5.70;;;;;;;35.28;41.37;100445.41;117474;1177;23630;-66
2021/08/10 08:15:10;;;;;;;6.60;5.30;;;;;;;35.41;40.96;100444.95;117398;1182;23887;-72
2021/08/10 08:17:40;;;;;;;6.60;5.20;;;;;;;35.61;40.53;100447.08;117439;1185;21855;-73
2021/08/10 08:20:15;;;;;;;13.80;5.60;;;;;;;35.84;39.86;100444.88;117407;1183;21855;-75
2021/08/10 08:22:47;;;;;;;6.20;5.20;;;;;;;36.04;39.62;100445.11;117407;1182;21857;-74
2021/08/10 08:25:16;;;;;;;8.50;5.50;;;;;;;36.28;39.46;100436.32;117437;1183;21860;-64
2021/08/10 08:27:44;;;;;;;6.50;4.60;;;;;;;36.42;39.03;100435.02;117429;1183;21854;-75
2021/08/10 08:30:13;;;;;;;7.40;5.20;;;;;;;36.46;39.08;100434.02;117392;1184;22905;-75
2021/08/10 08:32:49;;;;;;;8.80;4.30;;;;;;;36.65;38.38;100434.01;117332;1182;23468;-67
2021/08/10 08:35:19;;;;;;;5.60;4.60;;;;;;;36.86;38.13;100431.48;117400;1182;23693;-75
2021/08/10 08:37:47;;;;;;;5.40;4.80;;;;;;;36.97;37.75;100433.14;117362;1182;23537;-73
2021/08/10 08:40:17;;;;;;;5.80;5.10;;;;;;;37.06;37.54;100433.98;117370;1176;21857;-75
2021/08/10 08:42:46;;;;;;;5.90;4.70;;;;;;;37.16;37.35;100433.34;117271;1185;23326;-75
2021/08/10 08:45:15;;;;;;;5.10;4.60;;;;;;;37.24;36.92;100431.96;117392;1183;21868;-76
2021/08/10 08:48:04;;;;;;;19.00;13.30;;;;;;;37.31;36.12;100432.32;117412;1185;23621;-65
2021/08/10 08:50:33;;;;;;;9.70;5.20;;;;;;;37.29;36.33;100429.48;117280;1183;23436;-74
2021/08/10 08:53:03;;;;;;;9.20;5.10;;;;;;;37.36;36.44;100428.75;117389;1182;23899;-72
2021/08/10 08:55:32;;;;;;;6.80;4.40;;;;;;;37.42;36.35;100426.38;117152;1185;23891;-74
2021/08/10 08:58:01;;;;;;;7.70;4.70;;;;;;;37.56;35.75;100425.22;117421;1182;21866;-66
2021/08/10 09:00:30;;;;;;;5.30;4.80;;;;;;;37.50;36.02;100423.98;117415;1182;21855;-75
2021/08/10 09:02:58;;;;;;;7.20;4.50;;;;;;;37.56;35.74;100424.71;117428;1185;22908;-76
2021/08/10 09:05:27;;;;;;;4.70;4.30;;;;;;;37.59;35.90;100419.77;117411;1182;21862;-68
2021/08/10 09:07:59;;;;;;;5.30;4.80;;;;;;;37.70;36.16;100417.84;117347;1182;21845;-66
2021/08/10 09:10:29;;;;;;;5.60;4.70;;;;;;;37.80;35.54;100411.00;117437;1185;23535;-74
2021/08/10 09:12:58;;;;;;;5.10;4.60;;;;;;;37.76;35.69;100411.94;117424;1184;24146;-74
2021/08/10 09:15:36;;;;;;;6.50;4.70;;;;;;;37.78;35.46;100410.94;117416;1185;21854;-72
2021/08/10 09:18:12;;;;;;;5.30;4.60;;;;;;;37.91;34.97;100410.55;117338;1182;21868;-67
2021/08/10 09:20:56;;;;;;;5.60;4.90;;;;;;;38.01;34.84;100413.81;117454;1183;21857;-74
2021/08/10 09:23:40;;;;;;;6.50;4.60;;;;;;;38.12;34.82;100412.64;117429;1184;21855;-66
2021/08/10 09:26:09;;;;;;;5.50;4.60;;;;;;;38.27;34.22;100412.52;117374;1182;21852;-67
2021/08/10 09:28:38;;;;;;;8.10;4.50;;;;;;;38.25;33.97;100412.17;117396;1182;23456;-67
2021/08/10 09:31:28;;;;;;;6.80;5.10;;;;;;;38.19;34.47;100407.99;117380;1182;21867;-68
2021/08/10 09:34:02;;;;;;;6.20;4.90;;;;;;;38.33;34.53;100408.94;117338;1185;23434;-75
2021/08/10 09:36:30;;;;;;;5.30;4.50;;;;;;;38.41;34.10;100408.79;117395;1185;21861;-67
2021/08/10 09:38:59;;;;;;;8.40;4.80;;;;;;;38.38;33.82;100408.30;117332;1182;23598;-73
2021/08/10 09:41:28;;;;;;;6.00;4.00;;;;;;;38.34;33.98;100409.77;117279;1184;22911;-66
2021/08/10 09:44:17;;;;;;;5.60;4.60;;;;;;;38.34;33.93;100407.16;117343;1186;23537;-69
2021/08/10 09:46:47;;;;;;;4.80;4.30;;;;;;;38.31;33.48;100404.48;117372;1185;21854;-72
2021/08/10 09:49:18;;;;;;;6.40;4.30;;;;;;;38.40;33.75;100409.05;117264;1180;23676;-70
2021/08/10 09:51:51;;;;;;;6.70;4.10;;;;;;;38.52;34.07;100406.73;117141;1182;21857;-67
2021/08/10 09:54:21;;;;;;;7.20;4.20;;;;;;;38.70;33.74;100404.41;117378;1184;23459;-74
2021/08/10 09:57:03;;;;;;;6.40;4.10;;;;;;;39.07;33.34;100406.23;117340;1185;23539;-77
2021/08/10 09:59:42;;;;;;;6.10;4.10;;;;;;;39.39;32.41;100410.65;117332;1184;21867;-68
2021/08/10 10:02:21;;;;;;;10.90;4.10;;;;;;;39.40;31.62;100407.35;117426;1182;23554;-67
2021/08/10 10:04:53;;;;;;;4.90;4.00;;;;;;;39.36;31.77;100410.86;117381;1182;21861;-77
2021/08/10 10:07:21;;;;;;;5.50;4.50;;;;;;;39.29;31.49;100411.55;117454;1185;22912;-75
2021/08/10 10:09:49;;;;;;;7.20;4.50;;;;;;;39.15;31.81;100413.33;117347;1185;21864;-69
2021/08/10 10:12:25;;;;;;;6.20;4.80;;;;;;;39.05;32.19;100409.45;117380;1182;22919;-72
2021/08/10 10:14:58;;;;;;;5.60;4.30;;;;;;;38.98;32.47;100407.60;117353;1185;21880;-74
2021/08/10 10:17:49;;;;;;;6.40;4.40;;;;;;;39.01;32.25;100406.47;117304;1181;23056;-76
2021/08/10 10:20:22;;;;;;;6.50;4.10;;;;;;;39.09;32.38;100403.49;118349;1182;21873;-69
2021/08/10 10:22:50;;;;;;;4.40;3.90;;;;;;;39.18;32.38;100398.56;118587;1185;21870;-69
2021/08/10 10:25:18;;;;;;;8.30;4.50;;;;;;;39.31;32.31;100398.85;117127;1185;21874;-75
2021/08/10 10:27:47;;;;;;;9.30;4.20;;;;;;;39.38;31.78;100396.80;117388;1186;22912;-64
2021/08/10 10:30:16;;;;;;;7.80;4.40;;;;;;;39.49;31.47;100393.44;117242;1186;21836;-67
2021/08/10 10:32:44;;;;;;;6.00;4.20;;;;;;;39.47;31.85;100391.44;117395;1182;21877;-66
2021/08/10 10:35:13;;;;;;;6.10;4.00;;;;;;;39.31;31.89;100389.79;117392;1185;21890;-76
2021/08/10 10:37:41;;;;;;;5.00;4.30;;;;;;;39.25;31.72;100390.45;117447;1182;21857;-66
2021/08/10 10:40:10;;;;;;;5.30;3.90;;;;;;;39.28;31.56;100388.60;117300;1184;21989;-66
2021/08/10 10:42:39;;;;;;;5.50;4.00;;;;;;;39.31;31.31;100387.85;117400;1180;22909;-64
2021/08/10 10:45:08;;;;;;;5.90;4.30;;;;;;;39.32;31.60;100388.02;117351;1185;21853;-76
2021/08/10 10:47:39;;;;;;;7.00;4.00;;;;;;;39.32;31.42;100382.27;117445;1176;21845;-82
2021/08/10 10:50:13;;;;;;;5.00;4.10;;;;;;;39.28;31.53;100383.55;117420;1182;21845;-75
2021/08/10 10:53:01;;;;;;;5.00;3.80;;;;;;;39.25;31.46;100386.26;117472;1182;21861;-66
2021/08/10 10:55:37;;;;;;;4.20;3.80;;;;;;;39.45;31.21;100382.71;117525;1181;22889;-73
2021/08/10 10:58:27;;;;;;;5.80;4.00;;;;;;;39.54;30.95;100380.14;117478;1184;21855;-73
2021/08/10 11:01:11;;;;;;;;;;;;;;;39.57;31.33;100380.30;117463;1185;21854;-70
2021/08/10 11:03:44;;;;;;;7.80;4.50;;;;;;;39.57;30.80;100380.44;117564;1186;21860;-72
2021/08/10 11:06:32;;;;;;;5.60;3.90;;;;;;;39.49;31.07;100370.77;117355;1179;21895;-66
2021/08/10 11:09:02;;;;;;;6.20;3.90;;;;;;;39.38;31.20;100373.90;117444;1185;21854;-67
2021/08/10 11:11:52;;;;;;;5.20;4.30;;;;;;;39.39;31.30;100371.56;117477;1186;21854;-67
2021/08/10 11:14:36;;;;;;;;;;;;;;;39.42;31.60;100369.51;117450;1183;21839;-67
2021/08/10 11:17:07;;;;;;;8.00;4.10;;;;;;;39.55;31.80;100367.18;117415;1183;21855;-74
2021/08/10 11:19:38;;;;;;;6.00;4.00;;;;;;;39.64;31.15;100362.61;117464;1183;21856;-74
2021/08/10 11:22:14;;;;;;;6.10;4.60;;;;;;;39.74;31.12;100361.22;117562;1183;23560;-68
2021/08/10 11:24:53;;;;;;;7.30;3.80;;;;;;;39.86;30.96;100359.48;117420;1185;22909;-74
2021/08/10 11:27:41;;;;;;;5.20;4.50;;;;;;;39.94;30.76;100356.05;117407;1182;21866;-65
2021/08/10 11:30:21;;;;;;;6.50;4.20;;;;;;;40.06;31.26;100358.27;117516;1182;21897;-65
2021/08/10 11:32:51;;;;;;;4.50;3.90;;;;;;;40.22;30.52;100350.82;117537;1185;21893;-70